INSIDE THOROFARE AT ATLANTIC CITY HADS current weather conditions

sailwx.info

Wind from 250 at 7 knots gusting 14

Air temperature 10.3° C
Dewpoint -1.8° C

Last reported at 2019-Dec-15 20:00 UTC.
Time now 2019-Dec-15 20:40 UTC

Location: N 39°21' W 074°27'.
View on Google Maps.

See reports from other nearby stations

  
Tides and Currents Weather Stations Pressure Air Temp Water Temp Dewpoint Dewpoint Depression Visibility Wind Speed Wind Dir Waves Ship Positions
date/time (UTC)wind fromknots sea level pressurealtimeterstation pressurevisibilityair tempwater tempwave heightnotes
2019-Dec-15 20:00 250 7 gusting 14 10.3
2019-Dec-15 19:48 243 9 gusting 20 10.4
2019-Dec-15 19:42 248 10 gusting 18 10.4
2019-Dec-15 19:36 246 9 gusting 19 10.4
2019-Dec-15 19:30 252 6 gusting 15 10.3
2019-Dec-15 19:24 254 8 gusting 17 10.0
2019-Dec-15 19:18 253 5 gusting 13 10.2
2019-Dec-15 19:12 252 8 gusting 16 10.6
2019-Dec-15 19:06 247 8 gusting 21 10.7
2019-Dec-15 19:00 243 9 gusting 18 10.6
2019-Dec-15 18:54 250 9 gusting 23 10.4
2019-Dec-15 18:48 234 14 gusting 24 10.4
2019-Dec-15 18:42 236 13 gusting 23 10.5
2019-Dec-15 18:36 241 10 gusting 18 10.7
2019-Dec-15 18:30 244 8 gusting 19 10.8
2019-Dec-15 18:24 242 9 gusting 19 10.6
2019-Dec-15 18:18 246 10 gusting 18 10.3
2019-Dec-15 18:12 237 11 gusting 18 10.2
2019-Dec-15 18:06 224 11 gusting 16 10.1
2019-Dec-15 18:00 240 10 gusting 18 10.1
2019-Dec-15 17:54 226 13 gusting 21 9.9
2019-Dec-15 17:48 231 13 gusting 19 10.1
2019-Dec-15 17:42 224 16 gusting 21 10.3
2019-Dec-15 17:36 221 17 gusting 23 10.3
2019-Dec-15 17:30 226 16 gusting 26 10.4
2019-Dec-15 17:24 224 14 gusting 21 10.3
2019-Dec-15 17:18 214 13 gusting 21 10.1
2019-Dec-15 17:12 217 12 gusting 19 9.8
2019-Dec-15 17:06 218 13 gusting 20 9.6
2019-Dec-15 17:00 219 15 gusting 19 9.6
2019-Dec-15 16:54 217 14 gusting 21 9.5
2019-Dec-15 16:48 219 14 gusting 20 9.5
2019-Dec-15 16:42 220 16 gusting 21 9.6
2019-Dec-15 16:36 217 14 gusting 24 9.6
2019-Dec-15 16:30 220 14 gusting 20 9.7
2019-Dec-15 16:24 221 16 gusting 25 9.7
2019-Dec-15 16:18 214 14 gusting 20 9.7
2019-Dec-15 16:12 212 12 gusting 20 9.6
2019-Dec-15 16:06 211 12 gusting 21 9.6
2019-Dec-15 16:00 216 13 gusting 21 9.5
2019-Dec-15 15:54 214 12 gusting 18 9.5
2019-Dec-15 15:48 214 13 gusting 22 9.4
2019-Dec-15 15:42 215 14 gusting 21 9.2
2019-Dec-15 15:36 216 13 gusting 20 9.1
2019-Dec-15 15:30 212 12 gusting 18 9.0
2019-Dec-15 15:24 215 12 gusting 19 8.9
2019-Dec-15 15:18 212 12 gusting 22 8.8
2019-Dec-15 15:12 209 11 gusting 18 8.5
2019-Dec-15 15:06 207 12 gusting 18 8.4
2019-Dec-15 15:00 214 12 gusting 18 8.4
2019-Dec-15 14:54 212 11 gusting 17 8.4
2019-Dec-15 14:48 211 11 gusting 16 8.3
2019-Dec-15 14:42 209 10 gusting 13 8.1
2019-Dec-15 14:36 207 9 gusting 14 7.9
2019-Dec-15 14:30 214 11 gusting 16 7.7
2019-Dec-15 14:24 214 11 gusting 17 7.6
2019-Dec-15 14:18 214 12 gusting 18 7.5
2019-Dec-15 14:12 214 11 gusting 15 7.5
2019-Dec-15 14:06 213 10 gusting 14 7.3
2019-Dec-15 14:00 213 10 gusting 14 7.4
2019-Dec-15 13:54 215 10 gusting 14 7.4
2019-Dec-15 13:48 212 10 gusting 16 7.4
2019-Dec-15 13:42 212 9 gusting 17 7.3
2019-Dec-15 13:36 211 10 gusting 16 7.2
2019-Dec-15 13:30 211 9 gusting 13 7.1
2019-Dec-15 13:24 209 8 gusting 13 7.0
2019-Dec-15 13:18 210 8 gusting 12 6.9
2019-Dec-15 13:12 210 8 gusting 12 6.9
2019-Dec-15 13:06 209 9 gusting 16 6.9
2019-Dec-15 13:00 208 8 gusting 13 6.8
2019-Dec-15 12:54 208 7 gusting 11 6.7
2019-Dec-15 12:48 210 6 gusting 8 6.5
2019-Dec-15 12:42 213 6 gusting 9 6.4
2019-Dec-15 12:36 214 7 gusting 11 6.4
2019-Dec-15 12:30 215 8 gusting 11 6.4
2019-Dec-15 12:24 218 9 gusting 12 6.4
2019-Dec-15 12:18 217 9 gusting 13 6.4
2019-Dec-15 12:12 217 10 gusting 13 6.4
2019-Dec-15 12:06 218 11 gusting 15 6.4
2019-Dec-15 12:00 217 10 gusting 14 6.4
2019-Dec-15 11:54 218 9 gusting 13 6.3
2019-Dec-15 11:48 217 9 gusting 11 6.3
2019-Dec-15 11:42 217 9 gusting 12 6.2
2019-Dec-15 11:36 218 9 gusting 12 6.2
2019-Dec-15 11:30 217 10 gusting 13 6.2
2019-Dec-15 11:24 218 10 gusting 13 6.2
2019-Dec-15 11:18 219 9 gusting 13 6.2
2019-Dec-15 11:12 219 11 gusting 15 6.2
2019-Dec-15 11:06 217 10 gusting 14 6.1
2019-Dec-15 11:00 218 11 gusting 14 6.1
2019-Dec-15 10:54 217 10 gusting 14 6.0
2019-Dec-15 10:48 218 10 gusting 14 6.0
2019-Dec-15 10:42 220 11 gusting 15 6.0
2019-Dec-15 10:36 218 11 gusting 15 6.0
2019-Dec-15 10:30 217 11 gusting 16 5.9
2019-Dec-15 10:24 216 10 gusting 14 5.9
2019-Dec-15 10:18 215 9 gusting 13 5.8
2019-Dec-15 10:12 215 9 gusting 13 5.8
2019-Dec-15 10:06 216 10 gusting 13 5.7
2019-Dec-15 10:00 216 10 gusting 15 5.7
2019-Dec-15 09:54 218 9 gusting 12 5.6
2019-Dec-15 09:48 219 10 gusting 14 5.6
2019-Dec-15 09:42 218 9 gusting 12 5.6
2019-Dec-15 09:36 217 9 gusting 11 5.6
2019-Dec-15 09:30 219 9 gusting 14 5.6
2019-Dec-15 09:24 216 9 gusting 13 5.6
2019-Dec-15 09:18 216 10 gusting 15 5.6
2019-Dec-15 09:12 217 9 gusting 13 5.6
2019-Dec-15 09:06 220 9 gusting 14 5.6
2019-Dec-15 09:00 221 9 gusting 13 5.5
2019-Dec-15 08:54 223 9 gusting 12 5.6
2019-Dec-15 08:48 219 9 gusting 15 5.6
2019-Dec-15 08:42 220 10 gusting 13 5.5
2019-Dec-15 08:36 220 10 gusting 14 5.5
2019-Dec-15 08:30 221 9 gusting 14 5.5
2019-Dec-15 08:24 219 11 gusting 14 5.5
2019-Dec-15 08:18 220 10 gusting 13 5.5
2019-Dec-15 08:12 218 11 gusting 16 5.5
2019-Dec-15 08:06 219 11 gusting 16 5.4
2019-Dec-15 08:00 220 9 gusting 15 5.4
2019-Dec-15 07:54 222 9 gusting 13 5.3
2019-Dec-15 07:48 222 9 gusting 14 5.3
2019-Dec-15 07:42 220 9 gusting 12 5.3
2019-Dec-15 07:36 218 8 gusting 11 5.3
2019-Dec-15 07:30 220 8 gusting 12 5.4
2019-Dec-15 07:24 221 8 gusting 11 5.4
2019-Dec-15 07:18 220 9 gusting 11 5.4
2019-Dec-15 07:12 221 10 gusting 12 5.5
2019-Dec-15 07:06 218 10 gusting 15 5.6
2019-Dec-15 07:00 218 11 gusting 13 5.5
2019-Dec-15 06:54 218 11 gusting 15 5.5
2019-Dec-15 06:48 219 10 gusting 12 5.5
2019-Dec-15 06:42 217 10 gusting 14 5.5
2019-Dec-15 06:36 218 9 gusting 12 5.5
2019-Dec-15 06:30 218 8 gusting 10 5.5
2019-Dec-15 06:24 218 8 gusting 11 5.6
2019-Dec-15 06:18 219 8 gusting 10 5.7
2019-Dec-15 06:12 220 9 gusting 14 5.8
2019-Dec-15 06:06 221 9 gusting 13 5.8
2019-Dec-15 06:00 222 9 gusting 12 5.8
2019-Dec-15 05:54 220 10 gusting 13 6.0
2019-Dec-15 05:48 224 9 gusting 12 6.1
2019-Dec-15 05:42 228 8 gusting 14 6.2
2019-Dec-15 05:36 233 7 gusting 11 6.3
2019-Dec-15 05:30 231 10 gusting 17 6.4
2019-Dec-15 05:24 229 9 gusting 15 6.4
2019-Dec-15 05:18 230 9 gusting 15 6.5
2019-Dec-15 05:12 231 9 gusting 14 6.5
2019-Dec-15 05:06 238 9 gusting 14 6.6
2019-Dec-15 05:00 231 9 gusting 14 6.6
2019-Dec-15 04:54 233 9 gusting 14 6.7
2019-Dec-15 04:48 233 10 gusting 14 6.8
2019-Dec-15 04:42 238 10 gusting 16 6.8
2019-Dec-15 04:36 240 9 gusting 16 6.9
2019-Dec-15 04:30 240 9 gusting 15 7.0
2019-Dec-15 04:24 241 8 gusting 17 7.0
2019-Dec-15 04:18 239 10 gusting 16 7.1
2019-Dec-15 04:12 239 9 gusting 14 7.1
2019-Dec-15 04:06 241 8 gusting 14 7.1
2019-Dec-15 04:00 242 8 gusting 14 7.2
2019-Dec-15 03:54 238 9 gusting 14 7.3
2019-Dec-15 03:48 238 10 gusting 16 7.4
2019-Dec-15 03:42 239 9 gusting 17 7.4
2019-Dec-15 03:36 240 9 gusting 19 7.4
2019-Dec-15 03:30 239 9 gusting 15 7.5
2019-Dec-15 03:24 239 10 gusting 16 7.6
2019-Dec-15 03:18 237 9 gusting 15 7.6
2019-Dec-15 03:12 238 9 gusting 18 7.6
2019-Dec-15 03:06 241 8 gusting 16 7.7
2019-Dec-15 03:00 239 8 gusting 17 7.8
2019-Dec-15 02:54 237 9 gusting 17 7.9
2019-Dec-15 02:48 243 9 gusting 14 8.0
2019-Dec-15 02:42 229 11 gusting 19 8.0
2019-Dec-15 02:36 235 10 gusting 17 8.2
2019-Dec-15 02:30 240 12 gusting 22 8.4
2019-Dec-15 02:24 233 13 gusting 23 8.5
2019-Dec-15 02:18 232 13 gusting 20 8.5
2019-Dec-15 02:12 227 14 gusting 22 8.6
2019-Dec-15 02:06 229 14 gusting 21 8.6
2019-Dec-15 02:00 229 13 gusting 20 8.7
2019-Dec-15 01:54 230 12 gusting 20 8.8
2019-Dec-15 01:48 229 14 gusting 24 8.9
2019-Dec-15 01:42 229 13 gusting 19 9.0
2019-Dec-15 01:36 229 13 gusting 19 9.0
2019-Dec-15 01:30 228 12 gusting 20 9.1
2019-Dec-15 01:24 228 11 gusting 16 9.1
2019-Dec-15 01:18 229 13 gusting 19 9.2
2019-Dec-15 01:12 226 15 gusting 23 9.2
2019-Dec-15 01:06 220 15 gusting 21 9.1
2019-Dec-15 01:00 217 15 gusting 21 9.1
2019-Dec-15 00:54 219 16 gusting 22 9.1
2019-Dec-15 00:48 219 14 gusting 18 9.0
2019-Dec-15 00:42 218 16 gusting 23 9.0
2019-Dec-15 00:36 218 14 gusting 19 8.9
2019-Dec-15 00:30 219 13 gusting 21 8.8
2019-Dec-15 00:24 220 14 gusting 18 8.8
2019-Dec-15 00:18 218 13 gusting 20 8.8
2019-Dec-15 00:12 220 15 gusting 22 8.8
2019-Dec-15 00:06 219 13 gusting 18 8.8
2019-Dec-15 00:00 215 13 gusting 18 8.9
2019-Dec-14 23:54 215 10 gusting 14 8.9
2019-Dec-14 23:48 218 11 gusting 17 8.9
2019-Dec-14 23:42 219 13 gusting 18 8.9
2019-Dec-14 23:36 219 13 gusting 19 8.9
2019-Dec-14 23:30 219 14 gusting 20 8.9
2019-Dec-14 23:24 216 14 gusting 22 9.0
2019-Dec-14 23:18 218 14 gusting 19 8.9
2019-Dec-14 23:12 217 12 gusting 17 8.9
2019-Dec-14 23:06 218 12 gusting 16 9.0
2019-Dec-14 23:00 217 13 gusting 22 9.1
2019-Dec-14 22:54 218 13 gusting 19 9.2
2019-Dec-14 22:48 218 13 gusting 21 9.3
2019-Dec-14 22:42 218 12 gusting 17 9.4
2019-Dec-14 22:36 218 12 gusting 17 9.5
2019-Dec-14 22:30 215 10 gusting 15 9.6
2019-Dec-14 22:24 214 10 gusting 16 9.7
2019-Dec-14 22:18 217 10 gusting 16 9.8
2019-Dec-14 22:12 217 8 gusting 12 9.9
2019-Dec-14 22:06 213 8 gusting 13 10.0
2019-Dec-14 22:00 218 10 gusting 16 9.9
2019-Dec-14 21:54 215 10 gusting 14 9.8
2019-Dec-14 21:48 217 10 gusting 15 9.8
2019-Dec-14 21:42 217 11 gusting 16 9.8
2019-Dec-14 21:36 219 11 gusting 17 9.8
2019-Dec-14 21:30 217 13 gusting 18 9.8
2019-Dec-14 21:24 217 12 gusting 17 9.8
2019-Dec-14 21:18 219 13 gusting 18 9.9
2019-Dec-14 21:00 210 12 gusting 19 10.0
2019-Dec-14 20:54 209 12 gusting 17 10.1
2019-Dec-14 20:48 210 13 gusting 20 10.3
2019-Dec-14 20:42 216 14 gusting 22 10.5
2019-Dec-14 20:36 205 10 gusting 18 10.6
2019-Dec-14 20:30 200 9 gusting 15 10.2
2019-Dec-14 20:24 195 10 gusting 19 10.1
2019-Dec-14 20:18 191 10 gusting 17 10.2
2019-Dec-14 20:12 184 10 gusting 15 10.2
2019-Dec-14 20:06 186 9 gusting 16 10.2
2019-Dec-14 20:00 191 8 gusting 14 10.2
2019-Dec-14 19:54 191 9 gusting 16 10.2
2019-Dec-14 19:48 188 9 gusting 16 10.3
2019-Dec-14 19:42 185 8 gusting 13 10.2
2019-Dec-14 19:36 198 11 gusting 20 10.3
2019-Dec-14 19:30 194 11 gusting 18 10.3
2019-Dec-14 19:24 192 11 gusting 18 10.4
2019-Dec-14 19:18 185 10 gusting 19 10.5
2019-Dec-14 19:12 174 11 gusting 18 10.5
2019-Dec-14 19:06 180 9 gusting 16 10.6
2019-Dec-14 19:00 170 7 gusting 15 10.6
2019-Dec-14 18:54 170 7 gusting 13 10.6
2019-Dec-14 18:48 165 7 gusting 13 10.7
2019-Dec-14 18:42 162 8 gusting 15 10.9
2019-Dec-14 18:36 165 8 gusting 14 10.9
2019-Dec-14 18:30 164 8 gusting 15 11.0
2019-Dec-14 18:24 163 8 gusting 15 11.1
2019-Dec-14 18:18 161 8 gusting 14 11.1
2019-Dec-14 18:12 157 9 gusting 18 11.1
2019-Dec-14 18:06 158 12 gusting 18 11.0
2019-Dec-14 18:00 154 8 gusting 15 10.9
2019-Dec-14 17:54 158 7 gusting 15 10.7
2019-Dec-14 17:48 168 7 gusting 12 10.6
2019-Dec-14 17:42 165 6 gusting 11 10.7
2019-Dec-14 17:36 172 7 gusting 12 10.7
2019-Dec-14 17:30 172 7 gusting 13 10.7
2019-Dec-14 17:24 160 7 gusting 13 10.6
2019-Dec-14 17:18 164 7 gusting 13 10.7
2019-Dec-14 17:12 162 5 gusting 11 10.8
2019-Dec-14 17:06 155 4 gusting 10 10.9
2019-Dec-14 17:00 161 5 gusting 9 10.9
2019-Dec-14 16:54 158 4 gusting 9 11.1
2019-Dec-14 16:48 160 6 gusting 12 11.3
2019-Dec-14 16:42 140 4 gusting 9 11.5
2019-Dec-14 16:36 123 3 gusting 10 11.3
2019-Dec-14 16:30 112 4 gusting 6 11.1
2019-Dec-14 16:24 113 4 gusting 6 11.2
2019-Dec-14 16:18 121 3 gusting 4 11.3
2019-Dec-14 16:12 123 2 gusting 5 11.3
2019-Dec-14 16:06 107 2 gusting 5 11.4
2019-Dec-14 16:00 139 2 gusting 6 11.5
2019-Dec-14 15:54 121 2 gusting 5 11.1
2019-Dec-14 15:48 138 2 gusting 6 11.5
2019-Dec-14 15:42 161 3 gusting 6 11.7
2019-Dec-14 15:36 153 3 gusting 5 11.7
2019-Dec-14 15:30 171 3 gusting 5 11.9
2019-Dec-14 15:24 181 2 gusting 4 12.0
2019-Dec-14 15:18 153 1 gusting 4 11.7
2019-Dec-14 15:12 177 3 gusting 6 11.7
2019-Dec-14 15:06 175 4 gusting 7 11.7
2019-Dec-14 15:00 178 4 gusting 8 11.7
2019-Dec-14 14:54 166 4 gusting 8 12.0
2019-Dec-14 14:48 172 4 gusting 7 12.2
2019-Dec-14 14:42 173 4 gusting 8 12.3
2019-Dec-14 14:36 187 4 gusting 8 12.5
2019-Dec-14 14:30 204 4 gusting 5 12.3
2019-Dec-14 14:24 211 5 gusting 7 12.0
2019-Dec-14 14:18 205 4 gusting 6 12.1
2019-Dec-14 14:12 206 5 gusting 7 11.8
2019-Dec-14 14:06 203 4 gusting 8 11.7
2019-Dec-14 14:00 203 3 gusting 5 11.4
2019-Dec-14 13:54 201 4 gusting 8 11.3
2019-Dec-14 13:48 210 5 gusting 8 11.2
2019-Dec-14 13:42 216 5 gusting 8 11.2
2019-Dec-14 13:36 218 4 gusting 6 11.2
2019-Dec-14 13:30 191 3 gusting 7 11.4
2019-Dec-14 13:24 171 3 gusting 7 11.3
2019-Dec-14 13:18 169 3 gusting 6 11.3
2019-Dec-14 13:12 176 3 gusting 5 11.3
2019-Dec-14 13:06 175 3 gusting 5 11.6
2019-Dec-14 13:00 157 3 gusting 8 11.8
2019-Dec-14 12:54 169 5 gusting 9 12.0
2019-Dec-14 12:48 179 4 gusting 7 12.2
2019-Dec-14 12:42 177 5 gusting 10 12.2
2019-Dec-14 12:36 181 4 gusting 8 12.3
2019-Dec-14 12:30 188 4 gusting 8 12.3
2019-Dec-14 12:24 188 4 gusting 8 12.1
2019-Dec-14 12:18 192 3 gusting 7 11.8
2019-Dec-14 12:12 184 2 gusting 5 11.4
2019-Dec-14 12:06 181 3 gusting 5 11.0
2019-Dec-14 12:00 177 2 gusting 4 11.0
2019-Dec-14 11:54 169 2 gusting 4 11.0
2019-Dec-14 11:48 147 2 gusting 5 11.0
2019-Dec-14 11:42 113 2 gusting 3 10.5
2019-Dec-14 11:36 141 1 gusting 3 10.7
2019-Dec-14 11:30 173 2 gusting 5 11.1
2019-Dec-14 11:24 160 2 gusting 5 11.0
2019-Dec-14 11:18 146 2 gusting 6 11.0
2019-Dec-14 10:54 176 4 gusting 7 11.0
2019-Dec-14 10:48 171 2 gusting 5 11.0
2019-Dec-14 10:42 173 3 gusting 6 11.1
2019-Dec-14 10:36 172 4 gusting 7 11.0
2019-Dec-14 10:30 182 4 gusting 7 11.0
2019-Dec-14 10:24 181 2 gusting 5 10.8
2019-Dec-14 10:18 177 3 gusting 5 10.8
2019-Dec-14 10:12 176 3 gusting 6 10.9
2019-Dec-14 10:06 180 3 gusting 6 10.9
2019-Dec-14 10:00 181 3 gusting 6 11.0
2019-Dec-14 09:54 181 4 gusting 7 11.1
2019-Dec-14 09:48 176 4 gusting 7 11.4
2019-Dec-14 09:42 194 5 gusting 10 11.6
2019-Dec-14 09:36 12.1
2019-Dec-14 09:30 12.2
2019-Dec-14 09:24 11.9
2019-Dec-14 09:18 155 4 gusting 12 12.1
2019-Dec-14 09:00 109 2 gusting 3 11.3
2019-Dec-14 08:48 106 2 gusting 3 11.5
2019-Dec-14 08:42 105 2 gusting 3 11.3
2019-Dec-14 08:36 116 2 gusting 3 11.4
2019-Dec-14 08:30 115 2 gusting 3 11.5
2019-Dec-14 08:24 121 2 gusting 4 11.7
2019-Dec-14 08:18 117 2 gusting 4 11.7
2019-Dec-14 08:12 118 3 gusting 5 11.7
2019-Dec-14 08:06 115 3 gusting 6 11.5
2019-Dec-14 08:00 129 3 gusting 5 11.8
2019-Dec-14 07:54 132 3 gusting 7 12.2
2019-Dec-14 07:48 154 2 gusting 5 12.9
2019-Dec-14 07:42 169 3 gusting 5 12.9
2019-Dec-14 07:36 167 4 gusting 8 12.6
2019-Dec-14 07:30 160 5 gusting 11 12.4
2019-Dec-14 07:24 162 4 gusting 8 11.7
2019-Dec-14 07:18 150 4 gusting 7 11.7
2019-Dec-14 07:12 171 4 gusting 11 12.1
2019-Dec-14 07:06 189 4 gusting 7 12.0
2019-Dec-14 07:00 199 5 gusting 10 11.6
2019-Dec-14 06:54 191 5 gusting 9 11.6
2019-Dec-14 06:48 182 4 gusting 8 11.4
2019-Dec-14 06:42 166 4 gusting 10 11.9
2019-Dec-14 06:36 134 3 gusting 8 11.9
2019-Dec-14 06:30 130 3 gusting 8 11.8
2019-Dec-14 06:24 115 3 gusting 7 11.1
2019-Dec-14 06:18 122 3 gusting 7 11.3
2019-Dec-14 06:12 122 4 gusting 8 11.5
2019-Dec-14 06:06 114 5 gusting 11 11.4
2019-Dec-14 06:00 107 7 gusting 11 11.2
2019-Dec-14 05:54 107 7 gusting 10 11.3
2019-Dec-14 05:48 106 6 gusting 11 11.4
2019-Dec-14 05:42 110 5 gusting 7 11.4
2019-Dec-14 05:36 112 3 gusting 6 11.5
2019-Dec-14 05:30 118 3 gusting 6 11.6
2019-Dec-14 05:24 123 3 gusting 6 11.8
2019-Dec-14 05:18 127 3 gusting 8 11.9
2019-Dec-14 05:12 121 4 gusting 8 12.5
2019-Dec-14 05:06 100 7 gusting 11 13.3
2019-Dec-14 05:00 092 6 gusting 11 13.5
2019-Dec-14 04:54 081 8 gusting 16 13.7
2019-Dec-14 04:48 084 9 gusting 14 13.9
2019-Dec-14 04:42 086 7 gusting 14 13.8
2019-Dec-14 04:36 087 7 gusting 11 13.8
2019-Dec-14 04:30 086 8 gusting 12 13.7
2019-Dec-14 04:24 077 6 gusting 13 13.7
2019-Dec-14 04:18 077 9 gusting 15 13.6
2019-Dec-14 04:12 091 6 gusting 13 13.6
2019-Dec-14 04:06 081 6 gusting 10 14.0
2019-Dec-14 04:00 078 5 gusting 9 13.9
2019-Dec-14 03:54 076 6 gusting 13 13.5
2019-Dec-14 03:48 085 8 gusting 15 13.9
2019-Dec-14 03:42 085 11 gusting 19 14.4
2019-Dec-14 03:36 064 9 gusting 19 13.7
2019-Dec-14 03:30 065 9 gusting 20 14.0
2019-Dec-14 03:24 060 12 gusting 25 13.8
2019-Dec-14 03:18 064 10 gusting 19 13.7
2019-Dec-14 03:12 058 10 gusting 24 13.5
2019-Dec-14 03:06 058 10 gusting 22 13.4
2019-Dec-14 03:00 064 9 gusting 21 13.4
2019-Dec-14 02:54 059 12 gusting 26 13.5
2019-Dec-14 02:48 059 11 gusting 20 13.4
2019-Dec-14 02:42 052 9 gusting 18 13.3
2019-Dec-14 02:36 053 9 gusting 19 13.5
2019-Dec-14 02:30 055 8 gusting 22 13.7
2019-Dec-14 02:24 059 8 gusting 16 13.7
2019-Dec-14 02:18 066 8 gusting 20 13.5
2019-Dec-14 02:12 052 8 gusting 19 13.4
2019-Dec-14 02:06 060 9 gusting 18 13.3
2019-Dec-14 02:00 059 9 gusting 23 13.4
2019-Dec-14 01:54 064 6 gusting 12 13.6
2019-Dec-14 01:48 075 10 gusting 18 13.1
2019-Dec-14 01:42 055 9 gusting 20 13.2
2019-Dec-14 01:36 051 9 gusting 18 13.4
2019-Dec-14 01:30 058 8 gusting 15 13.1
2019-Dec-14 01:24 066 6 gusting 14 12.9
2019-Dec-14 01:18 063 5 gusting 11 12.7
2019-Dec-14 01:12 057 8 gusting 14 12.9
2019-Dec-14 01:06 052 7 gusting 15 12.9
2019-Dec-14 01:00 049 7 gusting 15 12.9
2019-Dec-14 00:54 046 8 gusting 15 12.8
2019-Dec-14 00:48 047 9 gusting 17 12.9
2019-Dec-14 00:42 048 6 gusting 14 12.8
2019-Dec-14 00:36 053 7 gusting 16 12.7
2019-Dec-14 00:30 045 6 gusting 12 12.6
2019-Dec-14 00:24 044 7 gusting 11 12.6
2019-Dec-14 00:18 049 6 gusting 11 12.6
2019-Dec-14 00:12 050 6 gusting 13 12.7
2019-Dec-14 00:06 063 6 gusting 12 12.6
2019-Dec-14 00:00 044 6 gusting 12 12.7
2019-Dec-13 23:54 022 6 gusting 15 12.4
2019-Dec-13 23:48 014 4 gusting 10 11.8
2019-Dec-13 23:42 11.3
2019-Dec-13 23:36 334 4 gusting 8 11.2
2019-Dec-13 23:30 358 3 gusting 6 11.4
2019-Dec-13 23:24 005 3 gusting 6 11.6
2019-Dec-13 23:18 043 4 gusting 7 11.6
2019-Dec-13 23:12 11.6
2019-Dec-13 23:06 358 3 gusting 6 11.7
2019-Dec-13 23:00 010 4 gusting 7 11.8
2019-Dec-13 22:54 017 4 gusting 8 12.0
2019-Dec-13 22:48 019 5 gusting 8 12.0
2019-Dec-13 22:42 020 5 gusting 9 12.1
2019-Dec-13 22:36 021 5 gusting 9 12.0
2019-Dec-13 22:30 025 6 gusting 9 12.0
2019-Dec-13 22:24 026 6 gusting 10 12.0
2019-Dec-13 22:18 025 7 gusting 10 12.0
2019-Dec-13 22:12 025 5 gusting 9 12.1
2019-Dec-13 22:06 020 5 gusting 8 12.1
2019-Dec-13 22:00 022 5 gusting 8 12.2
2019-Dec-13 21:54 024 4 gusting 8 12.2
2019-Dec-13 21:48 018 3 gusting 6 12.2
2019-Dec-13 21:42 010 3 gusting 5 12.2
2019-Dec-13 21:36 012 3 gusting 6 12.3
2019-Dec-13 21:30 009 3 gusting 8 12.2
2019-Dec-13 21:24 012 2 gusting 4 12.2
2019-Dec-13 21:18 007 2 gusting 4 12.3
2019-Dec-13 21:12 004 3 gusting 4 12.5
2019-Dec-13 21:06 339 2 gusting 4 12.7
2019-Dec-13 21:00 010 2 gusting 3 13.0
2019-Dec-13 20:54 021 2 gusting 5 13.0
2019-Dec-13 20:48 047 2 gusting 4 13.0
2019-Dec-13 20:42 068 2 gusting 4 13.0
2019-Dec-13 20:36 088 4 gusting 8 13.0
2019-Dec-13 20:30 091 5 gusting 9 12.9
2019-Dec-13 20:24 084 7 gusting 13 12.6
2019-Dec-13 20:18 074 5 gusting 9 12.5
2019-Dec-13 20:12 079 5 gusting 11 12.2
2019-Dec-13 20:06 091 5 gusting 10 11.8
2019-Dec-13 20:00 092 5 gusting 12 11.8